Messwerte Ermelo

Temperatur

Temperatur
°C
1575604800 6.00 6.00 12
1575608400 7.00 7.00 12
1575612000 8.00 8.00 12
1575615600 9.00 9.00 13
1575619200 10.00 10.00 13
1575622800 11.00 11.00
1575626400 12.00 12.00
1575630000 13.00 13.00 15
1575633600 14.00 14.00 15
1575637200 15.00 15.00 14
1575640800 16.00 16.00 14
1575644400 17.00 17.00 14
1575648000 18.00 18.00 14
1575651600 19.00 19.00 14
1575655200 20.00 20.00 14
1575658800 21.00 21.00 13
1575662400 22.00 22.00 13
1575666000 23.00 23.00 13
1575669600 0.00 0.00 13
1575673200 1.00 1.00 13
1575676800 2.00 2.00
1575680400 3.00 3.00
1575684000 4.00 4.00
1575687600 5.00 5.00 12

Aktuellste Messwerte

Temperatur
13 °C
Feuchtigkeit
94 %
Wind
10 km/hWindrichtung: Südwest
Luftdruck
1020 hPa
Messzeit: 7. Dezember 2019, 6.00Datenquelle: METAR

Weitere Messstationen in der Nähe

Messstation Temperatur Entfernung
Nelspruit 18 °C 149 km
Springs - 160 km
Kruger Mpumalanga Intl 19 °C 168 km
Johannesburg 14 °C 179 km
Pretoria 16 °C 187 km
Pretoria - 199 km
Vereeniging 15 °C 202 km

Wind

Windrichtung Böen Mittelwind
° km/h km/h
1575604800 6.00 5.00 - 6.00 310° 20
1575608400 7.00 6.00 - 7.00 320° 20
1575612000 8.00 7.00 - 8.00 300° 20
1575615600 9.00 8.00 - 9.00 300° 20
1575619200 10.00 9.00 - 10.00 310° 20
1575622800 11.00 10.00 - 11.00
1575626400 12.00 11.00 - 12.00
1575630000 13.00 12.00 - 13.00 300° 20
1575633600 14.00 13.00 - 14.00 280° 20
1575637200 15.00 14.00 - 15.00 290° 15
1575640800 16.00 15.00 - 16.00 270° 15
1575644400 17.00 16.00 - 17.00 270° 15
1575648000 18.00 17.00 - 18.00 280° 10
1575651600 19.00 18.00 - 19.00 280° 10
1575655200 20.00 19.00 - 20.00 290° 10
1575658800 21.00 20.00 - 21.00 270° 15
1575662400 22.00 21.00 - 22.00 260° 15
1575666000 23.00 22.00 - 23.00 290° 10
1575669600 0.00 23.00 - 0.00 310° 10
1575673200 1.00 0.00 - 1.00 260° 10
1575676800 2.00 1.00 - 2.00
1575680400 3.00 2.00 - 3.00
1575684000 4.00 3.00 - 4.00
1575687600 5.00 4.00 - 5.00 280° 5

Ihre Wetterstation

Fehlt Ihre Wetterstation auf unserem Portal?

Schreiben Sie an network@meteonews.ch

Klima

Wann ist es am wärmsten? Wann regnet es am wenigsten? Unsere Klimadaten geben Auskunft.